Disclaimer

Please do not use the information listed here in-flight or in-navigation, as they are not provided to us by the airports but are provided by volunteers, so they might be outdated.

Search


Regions


Airport information page

Radio informations:
Tower (TWR) - 122.5 MHz

Airport informations:
Latitude: 09° 15' 27.19" N
Longitude: 012° 25' 49.52" E
Elevation: 599 feet - 183 meters
Operating hours: Remarks
Operating agency: Civil government, landing fees and diplomatic clearance may be required
Timezone: UTC+1
Fuel: N/A

Runway information:
13/31 - 5160 x 98 feet< - >1573 x 30 meters
17/35 - 9840 x 148 feet< - >2999 x 45 meters

Recent METARs:
DNYO 160800Z 06004KT CAVOK 28/07 Q1016
DNYO 160800Z 06004KT CAVOK 28/07 Q1016
DNYO 160800Z 06004KT CAVOK 28/07 Q1016

Airport on the map: